sensor_id;sensor_type;location;lat;lon;timestamp;temperature;humidity
44747;DHT22;30472;49.490;10.972;2023-10-08T00:01:19;16.70;99.90
44747;DHT22;30472;49.490;10.972;2023-10-08T00:03:48;16.70;99.90
44747;DHT22;30472;49.490;10.972;2023-10-08T00:06:15;16.80;99.90
44747;DHT22;30472;49.490;10.972;2023-10-08T00:08:40;17.00;99.90
44747;DHT22;30472;49.490;10.972;2023-10-08T00:11:06;17.00;99.90
44747;DHT22;30472;49.490;10.972;2023-10-08T00:13:33;17.00;99.90
44747;DHT22;30472;49.490;10.972;2023-10-08T00:16:08;16.90;99.90
44747;DHT22;30472;49.490;10.972;2023-10-08T00:18:41;16.90;99.90
44747;DHT22;30472;49.490;10.972;2023-10-08T00:21:14;16.80;99.90
44747;DHT22;30472;49.490;10.972;2023-10-08T00:23:39;16.70;99.90
44747;DHT22;30472;49.490;10.972;2023-10-08T00:26:08;16.60;99.90
44747;DHT22;30472;49.490;10.972;2023-10-08T00:28:34;16.60;99.90
44747;DHT22;30472;49.490;10.972;2023-10-08T00:31:01;16.40;99.90
44747;DHT22;30472;49.490;10.972;2023-10-08T00:33:37;16.40;99.90
44747;DHT22;30472;49.490;10.972;2023-10-08T00:36:03;16.40;99.90
44747;DHT22;30472;49.490;10.972;2023-10-08T00:38:43;16.60;99.90
44747;DHT22;30472;49.490;10.972;2023-10-08T00:41:16;16.60;99.90
44747;DHT22;30472;49.490;10.972;2023-10-08T00:43:41;16.60;99.90
44747;DHT22;30472;49.490;10.972;2023-10-08T00:46:10;16.70;99.90
44747;DHT22;30472;49.490;10.972;2023-10-08T00:48:47;16.70;99.90
44747;DHT22;30472;49.490;10.972;2023-10-08T00:51:14;16.70;99.90
44747;DHT22;30472;49.490;10.972;2023-10-08T00:53:57;16.80;99.90
44747;DHT22;30472;49.490;10.972;2023-10-08T00:56:32;16.70;99.90
44747;DHT22;30472;49.490;10.972;2023-10-08T00:59:33;16.70;99.90
44747;DHT22;30472;49.490;10.972;2023-10-08T01:02:09;16.70;99.90
44747;DHT22;30472;49.490;10.972;2023-10-08T01:04:40;16.70;99.90
44747;DHT22;30472;49.490;10.972;2023-10-08T01:07:10;16.50;99.90
44747;DHT22;30472;49.490;10.972;2023-10-08T01:09:44;16.70;99.90
44747;DHT22;30472;49.490;10.972;2023-10-08T01:12:17;16.70;99.90
44747;DHT22;30472;49.490;10.972;2023-10-08T01:14:46;16.60;99.90
44747;DHT22;30472;49.490;10.972;2023-10-08T01:17:13;16.60;99.90
44747;DHT22;30472;49.490;10.972;2023-10-08T01:19:45;16.50;99.90
44747;DHT22;30472;49.490;10.972;2023-10-08T01:22:16;16.50;99.90
44747;DHT22;30472;49.490;10.972;2023-10-08T01:24:44;16.30;99.90
44747;DHT22;30472;49.490;10.972;2023-10-08T01:27:13;16.10;99.90
44747;DHT22;30472;49.490;10.972;2023-10-08T01:29:48;16.10;99.90
44747;DHT22;30472;49.490;10.972;2023-10-08T01:32:16;16.00;99.90
44747;DHT22;30472;49.490;10.972;2023-10-08T01:34:43;15.80;99.90
44747;DHT22;30472;49.490;10.972;2023-10-08T01:37:16;15.80;99.90
44747;DHT22;30472;49.490;10.972;2023-10-08T01:39:46;15.80;99.90
44747;DHT22;30472;49.490;10.972;2023-10-08T01:42:15;15.70;99.90
44747;DHT22;30472;49.490;10.972;2023-10-08T01:44:47;15.60;99.90
44747;DHT22;30472;49.490;10.972;2023-10-08T01:47:14;15.60;99.90
44747;DHT22;30472;49.490;10.972;2023-10-08T01:49:42;15.60;99.90
44747;DHT22;30472;49.490;10.972;2023-10-08T01:52:09;15.60;99.90
44747;DHT22;30472;49.490;10.972;2023-10-08T01:54:43;15.50;99.90
44747;DHT22;30472;49.490;10.972;2023-10-08T01:57:09;15.50;99.90
44747;DHT22;30472;49.490;10.972;2023-10-08T01:59:36;15.40;99.90
44747;DHT22;30472;49.490;10.972;2023-10-08T02:02:03;15.30;99.90
44747;DHT22;30472;49.490;10.972;2023-10-08T02:04:33;15.40;99.90
44747;DHT22;30472;49.490;10.972;2023-10-08T02:07:03;15.60;99.90
44747;DHT22;30472;49.490;10.972;2023-10-08T02:09:38;15.80;99.90
44747;DHT22;30472;49.490;10.972;2023-10-08T02:12:04;15.70;99.90
44747;DHT22;30472;49.490;10.972;2023-10-08T02:14:30;15.90;99.90
44747;DHT22;30472;49.490;10.972;2023-10-08T02:16:57;15.90;99.90
44747;DHT22;30472;49.490;10.972;2023-10-08T02:19:28;15.80;99.90
44747;DHT22;30472;49.490;10.972;2023-10-08T02:21:55;15.90;99.90
44747;DHT22;30472;49.490;10.972;2023-10-08T02:24:21;15.70;99.90
44747;DHT22;30472;49.490;10.972;2023-10-08T02:26:51;15.70;99.90
44747;DHT22;30472;49.490;10.972;2023-10-08T02:29:17;15.60;99.90
44747;DHT22;30472;49.490;10.972;2023-10-08T02:31:42;15.80;99.90
44747;DHT22;30472;49.490;10.972;2023-10-08T02:34:09;15.80;99.90
44747;DHT22;30472;49.490;10.972;2023-10-08T02:36:39;15.80;99.90
44747;DHT22;30472;49.490;10.972;2023-10-08T02:39:08;15.70;99.90
44747;DHT22;30472;49.490;10.972;2023-10-08T02:41:40;15.90;99.90
44747;DHT22;30472;49.490;10.972;2023-10-08T02:44:18;15.80;99.90
44747;DHT22;30472;49.490;10.972;2023-10-08T02:46:47;15.90;99.90
44747;DHT22;30472;49.490;10.972;2023-10-08T02:49:20;15.80;99.90
44747;DHT22;30472;49.490;10.972;2023-10-08T02:51:47;15.80;99.90
44747;DHT22;30472;49.490;10.972;2023-10-08T02:54:16;15.70;99.90
44747;DHT22;30472;49.490;10.972;2023-10-08T02:56:47;15.70;99.90
44747;DHT22;30472;49.490;10.972;2023-10-08T02:59:16;15.80;99.90
44747;DHT22;30472;49.490;10.972;2023-10-08T03:01:41;15.90;99.90
44747;DHT22;30472;49.490;10.972;2023-10-08T03:04:10;15.90;99.90
44747;DHT22;30472;49.490;10.972;2023-10-08T03:06:49;15.70;99.90
44747;DHT22;30472;49.490;10.972;2023-10-08T03:09:16;15.70;99.90
44747;DHT22;30472;49.490;10.972;2023-10-08T03:11:47;15.70;99.90
44747;DHT22;30472;49.490;10.972;2023-10-08T03:14:14;15.70;99.90
44747;DHT22;30472;49.490;10.972;2023-10-08T03:16:53;15.70;99.90
44747;DHT22;30472;49.490;10.972;2023-10-08T03:19:23;15.90;99.90
44747;DHT22;30472;49.490;10.972;2023-10-08T03:21:50;15.80;99.90
44747;DHT22;30472;49.490;10.972;2023-10-08T03:24:19;15.80;99.90
44747;DHT22;30472;49.490;10.972;2023-10-08T03:27:00;15.90;99.90
44747;DHT22;30472;49.490;10.972;2023-10-08T03:29:38;15.90;99.90
44747;DHT22;30472;49.490;10.972;2023-10-08T03:32:12;15.90;99.90
44747;DHT22;30472;49.490;10.972;2023-10-08T03:34:52;15.80;99.90
44747;DHT22;30472;49.490;10.972;2023-10-08T03:37:22;15.90;99.90
44747;DHT22;30472;49.490;10.972;2023-10-08T03:39:55;15.90;99.90
44747;DHT22;30472;49.490;10.972;2023-10-08T03:42:48;15.80;99.90
44747;DHT22;30472;49.490;10.972;2023-10-08T03:45:14;15.80;99.90
44747;DHT22;30472;49.490;10.972;2023-10-08T03:47:48;15.80;99.90
44747;DHT22;30472;49.490;10.972;2023-10-08T03:50:28;15.80;99.90
44747;DHT22;30472;49.490;10.972;2023-10-08T03:53:06;15.60;99.90
44747;DHT22;30472;49.490;10.972;2023-10-08T03:55:40;15.60;99.90
44747;DHT22;30472;49.490;10.972;2023-10-08T03:58:09;15.60;99.90
44747;DHT22;30472;49.490;10.972;2023-10-08T04:00:37;15.70;99.90
44747;DHT22;30472;49.490;10.972;2023-10-08T04:03:08;15.60;99.90
44747;DHT22;30472;49.490;10.972;2023-10-08T04:05:36;15.70;99.90
44747;DHT22;30472;49.490;10.972;2023-10-08T04:08:37;15.60;99.90
44747;DHT22;30472;49.490;10.972;2023-10-08T04:11:11;15.80;99.90
44747;DHT22;30472;49.490;10.972;2023-10-08T04:14:16;15.70;99.90
44747;DHT22;30472;49.490;10.972;2023-10-08T04:16:42;15.70;99.90
44747;DHT22;30472;49.490;10.972;2023-10-08T04:19:08;15.70;99.90
44747;DHT22;30472;49.490;10.972;2023-10-08T04:21:33;15.70;99.90
44747;DHT22;30472;49.490;10.972;2023-10-08T04:24:02;15.70;99.90
44747;DHT22;30472;49.490;10.972;2023-10-08T04:26:31;15.50;99.90
44747;DHT22;30472;49.490;10.972;2023-10-08T04:28:59;15.60;99.90
44747;DHT22;30472;49.490;10.972;2023-10-08T04:31:31;15.60;99.90
44747;DHT22;30472;49.490;10.972;2023-10-08T04:34:03;15.50;99.90
44747;DHT22;30472;49.490;10.972;2023-10-08T04:36:36;15.60;99.90
44747;DHT22;30472;49.490;10.972;2023-10-08T04:39:05;15.50;99.90
44747;DHT22;30472;49.490;10.972;2023-10-08T04:41:42;15.40;99.90
44747;DHT22;30472;49.490;10.972;2023-10-08T04:44:09;15.40;99.90
44747;DHT22;30472;49.490;10.972;2023-10-08T04:46:41;15.40;99.90
44747;DHT22;30472;49.490;10.972;2023-10-08T04:49:14;15.40;99.90
44747;DHT22;30472;49.490;10.972;2023-10-08T04:51:58;15.50;99.90
44747;DHT22;30472;49.490;10.972;2023-10-08T04:54:27;15.50;99.90
44747;DHT22;30472;49.490;10.972;2023-10-08T04:56:57;15.50;99.90
44747;DHT22;30472;49.490;10.972;2023-10-08T04:59:24;15.50;99.90
44747;DHT22;30472;49.490;10.972;2023-10-08T05:01:58;15.50;99.90
44747;DHT22;30472;49.490;10.972;2023-10-08T05:04:43;15.50;99.90
44747;DHT22;30472;49.490;10.972;2023-10-08T05:07:23;15.50;99.90
44747;DHT22;30472;49.490;10.972;2023-10-08T05:10:07;15.40;99.90
44747;DHT22;30472;49.490;10.972;2023-10-08T05:12:34;15.40;99.90
44747;DHT22;30472;49.490;10.972;2023-10-08T05:15:06;15.40;99.90
44747;DHT22;30472;49.490;10.972;2023-10-08T05:17:38;15.30;99.90
44747;DHT22;30472;49.490;10.972;2023-10-08T05:20:20;15.40;99.90
44747;DHT22;30472;49.490;10.972;2023-10-08T05:23:11;15.30;99.90
44747;DHT22;30472;49.490;10.972;2023-10-08T05:26:06;15.30;99.90
44747;DHT22;30472;49.490;10.972;2023-10-08T05:28:40;15.40;99.90
44747;DHT22;30472;49.490;10.972;2023-10-08T05:31:29;15.30;99.90
44747;DHT22;30472;49.490;10.972;2023-10-08T05:34:17;15.20;99.90
44747;DHT22;30472;49.490;10.972;2023-10-08T05:36:58;15.30;99.90
44747;DHT22;30472;49.490;10.972;2023-10-08T05:39:30;15.30;99.90
44747;DHT22;30472;49.490;10.972;2023-10-08T05:42:16;15.30;99.90
44747;DHT22;30472;49.490;10.972;2023-10-08T05:44:45;15.40;99.90
44747;DHT22;30472;49.490;10.972;2023-10-08T05:47:14;15.40;99.90
44747;DHT22;30472;49.490;10.972;2023-10-08T05:50:09;15.50;99.90
44747;DHT22;30472;49.490;10.972;2023-10-08T05:52:46;15.40;99.90
44747;DHT22;30472;49.490;10.972;2023-10-08T05:55:32;15.50;99.90
44747;DHT22;30472;49.490;10.972;2023-10-08T05:58:12;15.50;99.90
44747;DHT22;30472;49.490;10.972;2023-10-08T06:00:45;15.60;99.90
44747;DHT22;30472;49.490;10.972;2023-10-08T06:03:12;15.60;99.90
44747;DHT22;30472;49.490;10.972;2023-10-08T06:05:58;15.60;99.90
44747;DHT22;30472;49.490;10.972;2023-10-08T06:08:48;15.60;99.90
44747;DHT22;30472;49.490;10.972;2023-10-08T06:11:20;15.70;99.90
44747;DHT22;30472;49.490;10.972;2023-10-08T06:14:05;15.70;99.90
44747;DHT22;30472;49.490;10.972;2023-10-08T06:16:43;15.70;99.90
44747;DHT22;30472;49.490;10.972;2023-10-08T06:19:27;15.70;99.90
44747;DHT22;30472;49.490;10.972;2023-10-08T06:21:52;15.70;99.90
44747;DHT22;30472;49.490;10.972;2023-10-08T06:24:18;15.70;99.90
44747;DHT22;30472;49.490;10.972;2023-10-08T06:26:46;15.70;99.90
44747;DHT22;30472;49.490;10.972;2023-10-08T06:29:14;15.70;99.90
44747;DHT22;30472;49.490;10.972;2023-10-08T06:31:57;15.70;99.90
44747;DHT22;30472;49.490;10.972;2023-10-08T06:34:23;15.70;99.90
44747;DHT22;30472;49.490;10.972;2023-10-08T06:36:53;15.70;99.90
44747;DHT22;30472;49.490;10.972;2023-10-08T06:39:21;15.80;99.90
44747;DHT22;30472;49.490;10.972;2023-10-08T06:41:52;15.80;99.90
44747;DHT22;30472;49.490;10.972;2023-10-08T06:44:17;15.80;99.90
44747;DHT22;30472;49.490;10.972;2023-10-08T06:46:43;15.80;99.90
44747;DHT22;30472;49.490;10.972;2023-10-08T06:49:09;15.90;99.90
44747;DHT22;30472;49.490;10.972;2023-10-08T06:51:39;15.80;99.90
44747;DHT22;30472;49.490;10.972;2023-10-08T06:54:07;15.80;99.90
44747;DHT22;30472;49.490;10.972;2023-10-08T06:56:36;15.80;99.90
44747;DHT22;30472;49.490;10.972;2023-10-08T06:59:02;15.80;99.90
44747;DHT22;30472;49.490;10.972;2023-10-08T07:01:28;15.90;99.90
44747;DHT22;30472;49.490;10.972;2023-10-08T07:04:07;16.00;99.90
44747;DHT22;30472;49.490;10.972;2023-10-08T07:06:54;16.00;99.90
44747;DHT22;30472;49.490;10.972;2023-10-08T07:09:20;16.10;99.90
44747;DHT22;30472;49.490;10.972;2023-10-08T07:11:55;16.20;99.90
44747;DHT22;30472;49.490;10.972;2023-10-08T07:14:24;16.30;99.90
44747;DHT22;30472;49.490;10.972;2023-10-08T07:16:56;16.40;99.90
44747;DHT22;30472;49.490;10.972;2023-10-08T07:19:27;16.40;99.90
44747;DHT22;30472;49.490;10.972;2023-10-08T07:22:02;16.50;99.90
44747;DHT22;30472;49.490;10.972;2023-10-08T07:24:29;16.60;99.90
44747;DHT22;30472;49.490;10.972;2023-10-08T07:26:56;16.70;99.90
44747;DHT22;30472;49.490;10.972;2023-10-08T07:29:22;16.80;99.90
44747;DHT22;30472;49.490;10.972;2023-10-08T07:31:47;16.90;99.90
44747;DHT22;30472;49.490;10.972;2023-10-08T07:34:15;16.90;99.90
44747;DHT22;30472;49.490;10.972;2023-10-08T07:36:41;16.80;99.90
44747;DHT22;30472;49.490;10.972;2023-10-08T07:39:07;16.80;99.90
44747;DHT22;30472;49.490;10.972;2023-10-08T07:41:45;16.80;99.90
44747;DHT22;30472;49.490;10.972;2023-10-08T07:44:12;16.90;99.90
44747;DHT22;30472;49.490;10.972;2023-10-08T07:46:39;16.90;99.90
44747;DHT22;30472;49.490;10.972;2023-10-08T07:49:04;17.00;99.90
44747;DHT22;30472;49.490;10.972;2023-10-08T07:51:30;17.00;99.90
44747;DHT22;30472;49.490;10.972;2023-10-08T07:53:56;17.20;99.90
44747;DHT22;30472;49.490;10.972;2023-10-08T07:56:22;17.20;99.90
44747;DHT22;30472;49.490;10.972;2023-10-08T07:58:52;17.30;99.90
44747;DHT22;30472;49.490;10.972;2023-10-08T08:01:21;17.50;99.90
44747;DHT22;30472;49.490;10.972;2023-10-08T08:03:46;17.60;99.90
44747;DHT22;30472;49.490;10.972;2023-10-08T08:06:14;18.00;99.90
44747;DHT22;30472;49.490;10.972;2023-10-08T08:08:41;17.90;99.90
44747;DHT22;30472;49.490;10.972;2023-10-08T08:11:07;18.00;99.90
44747;DHT22;30472;49.490;10.972;2023-10-08T08:13:38;18.10;99.90
44747;DHT22;30472;49.490;10.972;2023-10-08T08:16:04;18.20;99.90
44747;DHT22;30472;49.490;10.972;2023-10-08T08:18:50;18.30;99.90
44747;DHT22;30472;49.490;10.972;2023-10-08T08:21:17;18.80;99.90
44747;DHT22;30472;49.490;10.972;2023-10-08T08:23:46;18.80;99.90
44747;DHT22;30472;49.490;10.972;2023-10-08T08:26:16;18.90;99.90
44747;DHT22;30472;49.490;10.972;2023-10-08T08:29:01;18.90;99.90
44747;DHT22;30472;49.490;10.972;2023-10-08T08:31:31;19.40;99.90
44747;DHT22;30472;49.490;10.972;2023-10-08T08:34:06;19.60;99.90
44747;DHT22;30472;49.490;10.972;2023-10-08T08:36:39;20.10;99.90
44747;DHT22;30472;49.490;10.972;2023-10-08T08:39:11;19.80;99.90
44747;DHT22;30472;49.490;10.972;2023-10-08T08:41:37;20.10;99.90
44747;DHT22;30472;49.490;10.972;2023-10-08T08:44:03;20.40;99.90
44747;DHT22;30472;49.490;10.972;2023-10-08T08:46:36;20.90;99.90
44747;DHT22;30472;49.490;10.972;2023-10-08T08:49:12;20.50;99.90
44747;DHT22;30472;49.490;10.972;2023-10-08T08:51:38;19.70;99.90
44747;DHT22;30472;49.490;10.972;2023-10-08T08:54:05;19.30;99.90
44747;DHT22;30472;49.490;10.972;2023-10-08T08:56:39;19.10;99.90
44747;DHT22;30472;49.490;10.972;2023-10-08T08:59:05;18.70;99.90
44747;DHT22;30472;49.490;10.972;2023-10-08T09:01:32;18.50;99.90
44747;DHT22;30472;49.490;10.972;2023-10-08T09:04:01;18.40;99.90
44747;DHT22;30472;49.490;10.972;2023-10-08T09:06:33;18.20;99.90
44747;DHT22;30472;49.490;10.972;2023-10-08T09:09:00;18.20;99.90
44747;DHT22;30472;49.490;10.972;2023-10-08T09:11:45;18.10;99.90
44747;DHT22;30472;49.490;10.972;2023-10-08T09:14:11;18.20;99.90
44747;DHT22;30472;49.490;10.972;2023-10-08T09:16:36;18.10;99.90
44747;DHT22;30472;49.490;10.972;2023-10-08T09:19:02;18.10;99.90
44747;DHT22;30472;49.490;10.972;2023-10-08T09:21:29;18.00;99.90
44747;DHT22;30472;49.490;10.972;2023-10-08T09:23:55;17.90;99.90
44747;DHT22;30472;49.490;10.972;2023-10-08T09:26:25;17.90;99.90
44747;DHT22;30472;49.490;10.972;2023-10-08T09:28:52;17.80;99.90
44747;DHT22;30472;49.490;10.972;2023-10-08T09:31:19;17.90;99.90
44747;DHT22;30472;49.490;10.972;2023-10-08T09:33:55;17.90;99.90
44747;DHT22;30472;49.490;10.972;2023-10-08T09:36:22;18.00;99.90
44747;DHT22;30472;49.490;10.972;2023-10-08T09:39:00;18.20;99.90
44747;DHT22;30472;49.490;10.972;2023-10-08T09:41:31;18.40;99.90
44747;DHT22;30472;49.490;10.972;2023-10-08T09:43:58;18.70;99.90
44747;DHT22;30472;49.490;10.972;2023-10-08T09:46:30;18.90;99.90
44747;DHT22;30472;49.490;10.972;2023-10-08T09:49:00;19.00;99.90
44747;DHT22;30472;49.490;10.972;2023-10-08T09:51:29;19.10;99.90
44747;DHT22;30472;49.490;10.972;2023-10-08T09:54:11;18.70;99.90
44747;DHT22;30472;49.490;10.972;2023-10-08T09:56:40;18.70;99.90
44747;DHT22;30472;49.490;10.972;2023-10-08T09:59:07;18.60;99.90
44747;DHT22;30472;49.490;10.972;2023-10-08T10:01:36;18.50;99.90
44747;DHT22;30472;49.490;10.972;2023-10-08T10:04:09;18.50;99.90
44747;DHT22;30472;49.490;10.972;2023-10-08T10:06:35;18.50;99.90
44747;DHT22;30472;49.490;10.972;2023-10-08T10:09:01;18.60;99.90
44747;DHT22;30472;49.490;10.972;2023-10-08T10:11:28;18.50;99.90
44747;DHT22;30472;49.490;10.972;2023-10-08T10:13:58;18.60;99.90
44747;DHT22;30472;49.490;10.972;2023-10-08T10:16:27;18.60;99.90
44747;DHT22;30472;49.490;10.972;2023-10-08T10:18:57;18.60;99.90
44747;DHT22;30472;49.490;10.972;2023-10-08T10:21:26;18.40;99.90
44747;DHT22;30472;49.490;10.972;2023-10-08T10:23:54;18.40;99.90
44747;DHT22;30472;49.490;10.972;2023-10-08T10:31:33;18.70;99.90
44747;DHT22;30472;49.490;10.972;2023-10-08T10:34:05;18.60;99.90
44747;DHT22;30472;49.490;10.972;2023-10-08T10:36:30;18.50;99.90
44747;DHT22;30472;49.490;10.972;2023-10-08T10:38:57;18.30;99.90
44747;DHT22;30472;49.490;10.972;2023-10-08T10:41:22;18.40;99.90
44747;DHT22;30472;49.490;10.972;2023-10-08T10:43:48;18.40;99.90
44747;DHT22;30472;49.490;10.972;2023-10-08T10:46:18;18.30;99.90
44747;DHT22;30472;49.490;10.972;2023-10-08T10:48:57;18.30;99.90
44747;DHT22;30472;49.490;10.972;2023-10-08T10:51:30;18.20;99.90
44747;DHT22;30472;49.490;10.972;2023-10-08T10:53:57;18.20;99.90
44747;DHT22;30472;49.490;10.972;2023-10-08T10:56:26;18.10;99.90
44747;DHT22;30472;49.490;10.972;2023-10-08T10:59:02;18.10;99.90
44747;DHT22;30472;49.490;10.972;2023-10-08T11:01:45;18.10;99.90
44747;DHT22;30472;49.490;10.972;2023-10-08T11:04:12;18.00;99.90
44747;DHT22;30472;49.490;10.972;2023-10-08T11:06:44;18.10;99.90
44747;DHT22;30472;49.490;10.972;2023-10-08T11:09:11;18.10;99.90
44747;DHT22;30472;49.490;10.972;2023-10-08T11:11:42;18.00;99.90
44747;DHT22;30472;49.490;10.972;2023-10-08T11:14:11;18.10;99.90
44747;DHT22;30472;49.490;10.972;2023-10-08T11:16:47;18.20;99.90
44747;DHT22;30472;49.490;10.972;2023-10-08T11:19:13;18.30;99.90
44747;DHT22;30472;49.490;10.972;2023-10-08T11:21:51;18.40;99.90
44747;DHT22;30472;49.490;10.972;2023-10-08T11:24:29;18.30;99.90
44747;DHT22;30472;49.490;10.972;2023-10-08T11:26:59;18.40;99.90
44747;DHT22;30472;49.490;10.972;2023-10-08T11:29:47;18.40;99.90
44747;DHT22;30472;49.490;10.972;2023-10-08T11:32:16;18.50;99.90
44747;DHT22;30472;49.490;10.972;2023-10-08T11:34:46;18.50;99.90
44747;DHT22;30472;49.490;10.972;2023-10-08T11:37:36;18.70;99.90
44747;DHT22;30472;49.490;10.972;2023-10-08T11:40:02;18.70;99.90
44747;DHT22;30472;49.490;10.972;2023-10-08T11:42:38;18.70;99.90
44747;DHT22;30472;49.490;10.972;2023-10-08T11:45:04;18.70;99.90
44747;DHT22;30472;49.490;10.972;2023-10-08T11:47:50;18.80;99.90
44747;DHT22;30472;49.490;10.972;2023-10-08T11:50:23;18.90;99.90
44747;DHT22;30472;49.490;10.972;2023-10-08T11:52:56;18.90;99.90
44747;DHT22;30472;49.490;10.972;2023-10-08T11:55:27;18.60;99.90
44747;DHT22;30472;49.490;10.972;2023-10-08T11:57:52;18.70;99.90
44747;DHT22;30472;49.490;10.972;2023-10-08T12:00:18;18.70;99.90
44747;DHT22;30472;49.490;10.972;2023-10-08T12:02:51;18.90;99.90
44747;DHT22;30472;49.490;10.972;2023-10-08T12:05:20;19.00;99.90
44747;DHT22;30472;49.490;10.972;2023-10-08T12:07:50;19.10;99.90
44747;DHT22;30472;49.490;10.972;2023-10-08T12:10:23;18.90;99.90
44747;DHT22;30472;49.490;10.972;2023-10-08T12:12:53;18.90;99.90
44747;DHT22;30472;49.490;10.972;2023-10-08T12:15:20;18.90;99.90
44747;DHT22;30472;49.490;10.972;2023-10-08T12:17:47;19.00;99.90
44747;DHT22;30472;49.490;10.972;2023-10-08T12:20:27;18.90;99.90
44747;DHT22;30472;49.490;10.972;2023-10-08T12:22:53;18.80;99.90
44747;DHT22;30472;49.490;10.972;2023-10-08T12:25:18;18.90;99.90
44747;DHT22;30472;49.490;10.972;2023-10-08T12:27:45;18.90;99.90
44747;DHT22;30472;49.490;10.972;2023-10-08T12:30:10;18.90;99.90
44747;DHT22;30472;49.490;10.972;2023-10-08T12:32:36;18.90;99.90
44747;DHT22;30472;49.490;10.972;2023-10-08T12:35:10;18.80;99.90
44747;DHT22;30472;49.490;10.972;2023-10-08T12:37:39;18.80;99.90
44747;DHT22;30472;49.490;10.972;2023-10-08T12:40:06;19.00;99.90
44747;DHT22;30472;49.490;10.972;2023-10-08T12:42:48;18.90;99.90
44747;DHT22;30472;49.490;10.972;2023-10-08T12:45:13;18.70;99.90
44747;DHT22;30472;49.490;10.972;2023-10-08T12:47:39;18.70;99.90
44747;DHT22;30472;49.490;10.972;2023-10-08T12:50:05;18.70;99.90
44747;DHT22;30472;49.490;10.972;2023-10-08T12:52:33;18.60;99.90
44747;DHT22;30472;49.490;10.972;2023-10-08T12:55:02;18.60;99.90
44747;DHT22;30472;49.490;10.972;2023-10-08T12:57:30;18.70;99.90
44747;DHT22;30472;49.490;10.972;2023-10-08T13:00:01;18.70;99.90
44747;DHT22;30472;49.490;10.972;2023-10-08T13:02:29;18.80;99.90
44747;DHT22;30472;49.490;10.972;2023-10-08T13:04:56;18.80;99.90
44747;DHT22;30472;49.490;10.972;2023-10-08T13:07:23;18.80;99.90
44747;DHT22;30472;49.490;10.972;2023-10-08T13:09:52;18.80;99.90
44747;DHT22;30472;49.490;10.972;2023-10-08T13:12:17;18.70;99.90
44747;DHT22;30472;49.490;10.972;2023-10-08T13:14:43;18.60;99.90
44747;DHT22;30472;49.490;10.972;2023-10-08T13:17:10;18.70;99.90
44747;DHT22;30472;49.490;10.972;2023-10-08T13:19:37;18.60;99.90
44747;DHT22;30472;49.490;10.972;2023-10-08T13:22:02;18.50;99.90
44747;DHT22;30472;49.490;10.972;2023-10-08T13:24:32;18.50;99.90
44747;DHT22;30472;49.490;10.972;2023-10-08T13:26:58;18.50;99.90
44747;DHT22;30472;49.490;10.972;2023-10-08T13:29:24;18.70;99.90
44747;DHT22;30472;49.490;10.972;2023-10-08T13:31:52;18.70;99.90
44747;DHT22;30472;49.490;10.972;2023-10-08T13:34:19;18.60;99.90
44747;DHT22;30472;49.490;10.972;2023-10-08T13:36:46;18.60;99.90
44747;DHT22;30472;49.490;10.972;2023-10-08T13:39:15;18.50;99.90
44747;DHT22;30472;49.490;10.972;2023-10-08T13:41:46;18.50;99.90
44747;DHT22;30472;49.490;10.972;2023-10-08T13:44:17;18.50;99.90
44747;DHT22;30472;49.490;10.972;2023-10-08T13:46:44;18.50;99.90
44747;DHT22;30472;49.490;10.972;2023-10-08T13:49:15;18.60;99.90
44747;DHT22;30472;49.490;10.972;2023-10-08T13:51:42;18.50;99.90
44747;DHT22;30472;49.490;10.972;2023-10-08T13:54:09;18.60;99.90
44747;DHT22;30472;49.490;10.972;2023-10-08T13:56:36;18.60;99.90
44747;DHT22;30472;49.490;10.972;2023-10-08T13:59:03;18.60;99.90
44747;DHT22;30472;49.490;10.972;2023-10-08T14:01:32;18.70;99.90
44747;DHT22;30472;49.490;10.972;2023-10-08T14:04:01;18.70;99.90
44747;DHT22;30472;49.490;10.972;2023-10-08T14:06:35;18.80;99.90
44747;DHT22;30472;49.490;10.972;2023-10-08T14:09:03;18.80;99.90
44747;DHT22;30472;49.490;10.972;2023-10-08T14:11:33;18.80;99.90
44747;DHT22;30472;49.490;10.972;2023-10-08T14:13:59;18.80;99.90
44747;DHT22;30472;49.490;10.972;2023-10-08T14:16:28;18.90;99.90
44747;DHT22;30472;49.490;10.972;2023-10-08T14:18:55;18.80;99.90
44747;DHT22;30472;49.490;10.972;2023-10-08T14:21:21;18.90;99.90
44747;DHT22;30472;49.490;10.972;2023-10-08T14:23:58;19.00;99.90
44747;DHT22;30472;49.490;10.972;2023-10-08T14:26:28;19.10;99.90
44747;DHT22;30472;49.490;10.972;2023-10-08T14:29:00;19.00;99.90
44747;DHT22;30472;49.490;10.972;2023-10-08T14:31:33;19.30;99.90
44747;DHT22;30472;49.490;10.972;2023-10-08T14:33:59;19.30;99.90
44747;DHT22;30472;49.490;10.972;2023-10-08T14:36:34;19.30;99.90
44747;DHT22;30472;49.490;10.972;2023-10-08T14:39:18;19.40;99.90
44747;DHT22;30472;49.490;10.972;2023-10-08T14:42:03;19.30;99.90
44747;DHT22;30472;49.490;10.972;2023-10-08T14:44:47;19.10;99.90
44747;DHT22;30472;49.490;10.972;2023-10-08T14:47:14;19.00;99.90
44747;DHT22;30472;49.490;10.972;2023-10-08T14:49:41;18.90;99.90
44747;DHT22;30472;49.490;10.972;2023-10-08T14:52:08;18.90;99.90
44747;DHT22;30472;49.490;10.972;2023-10-08T14:54:33;18.60;99.90
44747;DHT22;30472;49.490;10.972;2023-10-08T14:57:00;18.50;99.90
44747;DHT22;30472;49.490;10.972;2023-10-08T14:59:29;18.50;99.90
44747;DHT22;30472;49.490;10.972;2023-10-08T15:01:56;18.30;99.90
44747;DHT22;30472;49.490;10.972;2023-10-08T15:04:22;18.20;99.90
44747;DHT22;30472;49.490;10.972;2023-10-08T15:06:48;18.20;99.90
44747;DHT22;30472;49.490;10.972;2023-10-08T15:09:15;18.10;99.90
44747;DHT22;30472;49.490;10.972;2023-10-08T15:11:47;18.00;99.90
44747;DHT22;30472;49.490;10.972;2023-10-08T15:14:13;18.00;99.90
44747;DHT22;30472;49.490;10.972;2023-10-08T15:16:41;18.00;99.90
44747;DHT22;30472;49.490;10.972;2023-10-08T15:19:07;17.90;99.90
44747;DHT22;30472;49.490;10.972;2023-10-08T15:21:37;17.90;99.90
44747;DHT22;30472;49.490;10.972;2023-10-08T15:24:05;17.80;99.90
44747;DHT22;30472;49.490;10.972;2023-10-08T15:26:36;17.60;99.90
44747;DHT22;30472;49.490;10.972;2023-10-08T15:29:02;17.60;99.90
44747;DHT22;30472;49.490;10.972;2023-10-08T15:31:28;17.60;99.90
44747;DHT22;30472;49.490;10.972;2023-10-08T15:33:54;17.40;99.90
44747;DHT22;30472;49.490;10.972;2023-10-08T15:36:19;17.40;99.90
44747;DHT22;30472;49.490;10.972;2023-10-08T15:38:45;17.30;99.90
44747;DHT22;30472;49.490;10.972;2023-10-08T15:41:11;17.20;99.90
44747;DHT22;30472;49.490;10.972;2023-10-08T15:43:39;17.20;99.90